sensor_id;sensor_type;location;lat;lon;timestamp;P1;durP1;ratioP1;P2;durP2;ratioP2
73276;SDS011;61501;43.316;5.372;2023-06-14T00:01:32;3.90;;;2.53;;
73276;SDS011;61501;43.316;5.372;2023-06-14T00:03:59;2.53;;;2.33;;
73276;SDS011;61501;43.316;5.372;2023-06-14T00:06:26;3.47;;;2.40;;
73276;SDS011;61501;43.316;5.372;2023-06-14T00:08:52;3.78;;;2.55;;
73276;SDS011;61501;43.316;5.372;2023-06-14T00:11:19;4.35;;;3.15;;
73276;SDS011;61501;43.316;5.372;2023-06-14T00:13:45;4.18;;;2.45;;
73276;SDS011;61501;43.316;5.372;2023-06-14T00:16:12;2.88;;;2.58;;
73276;SDS011;61501;43.316;5.372;2023-06-14T00:18:38;3.35;;;2.70;;
73276;SDS011;61501;43.316;5.372;2023-06-14T00:21:04;3.25;;;2.80;;
73276;SDS011;61501;43.316;5.372;2023-06-14T00:23:30;3.35;;;2.90;;
73276;SDS011;61501;43.316;5.372;2023-06-14T00:25:56;3.95;;;3.00;;
73276;SDS011;61501;43.316;5.372;2023-06-14T00:28:22;3.78;;;2.92;;
73276;SDS011;61501;43.316;5.372;2023-06-14T00:30:48;2.90;;;2.60;;
73276;SDS011;61501;43.316;5.372;2023-06-14T00:33:14;3.35;;;2.38;;
73276;SDS011;61501;43.316;5.372;2023-06-14T00:35:40;3.53;;;2.38;;
73276;SDS011;61501;43.316;5.372;2023-06-14T00:38:06;4.28;;;2.63;;
73276;SDS011;61501;43.316;5.372;2023-06-14T00:40:32;2.58;;;2.38;;
73276;SDS011;61501;43.316;5.372;2023-06-14T00:43:00;3.90;;;2.70;;
73276;SDS011;61501;43.316;5.372;2023-06-14T00:45:26;3.42;;;2.65;;
73276;SDS011;61501;43.316;5.372;2023-06-14T00:47:52;3.25;;;2.58;;
73276;SDS011;61501;43.316;5.372;2023-06-14T00:50:20;3.53;;;2.97;;
73276;SDS011;61501;43.316;5.372;2023-06-14T00:52:48;3.10;;;2.60;;
73276;SDS011;61501;43.316;5.372;2023-06-14T00:55:14;4.53;;;2.97;;
73276;SDS011;61501;43.316;5.372;2023-06-14T00:57:41;4.05;;;2.90;;
73276;SDS011;61501;43.316;5.372;2023-06-14T01:00:07;2.95;;;2.65;;
73276;SDS011;61501;43.316;5.372;2023-06-14T01:02:34;4.25;;;2.85;;
73276;SDS011;61501;43.316;5.372;2023-06-14T01:05:01;5.13;;;2.95;;
73276;SDS011;61501;43.316;5.372;2023-06-14T01:15:33;4.78;;;3.35;;
73276;SDS011;61501;43.316;5.372;2023-06-14T01:18:00;3.92;;;3.53;;
73276;SDS011;61501;43.316;5.372;2023-06-14T01:20:36;4.38;;;3.45;;
73276;SDS011;61501;43.316;5.372;2023-06-14T01:23:02;4.25;;;3.60;;
73276;SDS011;61501;43.316;5.372;2023-06-14T01:25:28;4.45;;;3.30;;
73276;SDS011;61501;43.316;5.372;2023-06-14T01:28:01;4.35;;;3.95;;
73276;SDS011;61501;43.316;5.372;2023-06-14T01:30:28;4.07;;;3.65;;
73276;SDS011;61501;43.316;5.372;2023-06-14T01:32:55;3.85;;;3.05;;
73276;SDS011;61501;43.316;5.372;2023-06-14T01:35:21;4.88;;;3.33;;
73276;SDS011;61501;43.316;5.372;2023-06-14T01:37:48;3.67;;;3.33;;
73276;SDS011;61501;43.316;5.372;2023-06-14T01:40:14;3.72;;;3.10;;
73276;SDS011;61501;43.316;5.372;2023-06-14T01:42:40;4.72;;;3.63;;
73276;SDS011;61501;43.316;5.372;2023-06-14T01:45:07;4.63;;;3.00;;
73276;SDS011;61501;43.316;5.372;2023-06-14T01:47:34;3.42;;;3.13;;
73276;SDS011;61501;43.316;5.372;2023-06-14T01:50:01;4.20;;;3.20;;
73276;SDS011;61501;43.316;5.372;2023-06-14T01:52:27;4.38;;;3.10;;
73276;SDS011;61501;43.316;5.372;2023-06-14T01:54:53;3.53;;;3.13;;
73276;SDS011;61501;43.316;5.372;2023-06-14T01:57:19;3.75;;;3.15;;
73276;SDS011;61501;43.316;5.372;2023-06-14T01:59:46;3.15;;;2.85;;
73276;SDS011;61501;43.316;5.372;2023-06-14T02:02:13;3.22;;;2.92;;
73276;SDS011;61501;43.316;5.372;2023-06-14T02:04:40;4.72;;;3.58;;
73276;SDS011;61501;43.316;5.372;2023-06-14T02:07:06;3.38;;;3.08;;
73276;SDS011;61501;43.316;5.372;2023-06-14T02:09:32;3.72;;;3.15;;
73276;SDS011;61501;43.316;5.372;2023-06-14T02:11:58;3.83;;;2.97;;
73276;SDS011;61501;43.316;5.372;2023-06-14T02:14:24;4.72;;;3.40;;
73276;SDS011;61501;43.316;5.372;2023-06-14T02:16:51;3.17;;;2.78;;
73276;SDS011;61501;43.316;5.372;2023-06-14T02:19:18;7.18;;;3.13;;
73276;SDS011;61501;43.316;5.372;2023-06-14T02:21:44;5.80;;;3.42;;
73276;SDS011;61501;43.316;5.372;2023-06-14T02:24:10;3.60;;;3.30;;
73276;SDS011;61501;43.316;5.372;2023-06-14T02:26:37;4.43;;;3.28;;
73276;SDS011;61501;43.316;5.372;2023-06-14T02:29:06;5.78;;;3.35;;
73276;SDS011;61501;43.316;5.372;2023-06-14T02:31:35;4.10;;;3.60;;
73276;SDS011;61501;43.316;5.372;2023-06-14T02:34:01;3.60;;;3.30;;
73276;SDS011;61501;43.316;5.372;2023-06-14T02:36:27;3.97;;;3.58;;
73276;SDS011;61501;43.316;5.372;2023-06-14T02:38:55;3.83;;;3.53;;
73276;SDS011;61501;43.316;5.372;2023-06-14T02:41:22;3.97;;;3.25;;
73276;SDS011;61501;43.316;5.372;2023-06-14T02:43:48;3.78;;;3.47;;
73276;SDS011;61501;43.316;5.372;2023-06-14T02:46:14;3.90;;;3.60;;
73276;SDS011;61501;43.316;5.372;2023-06-14T02:48:40;4.40;;;3.70;;
73276;SDS011;61501;43.316;5.372;2023-06-14T02:51:06;4.00;;;3.42;;
73276;SDS011;61501;43.316;5.372;2023-06-14T02:53:34;3.55;;;3.25;;
73276;SDS011;61501;43.316;5.372;2023-06-14T02:56:00;4.05;;;3.20;;
73276;SDS011;61501;43.316;5.372;2023-06-14T02:58:28;3.80;;;3.40;;
73276;SDS011;61501;43.316;5.372;2023-06-14T03:00:54;3.58;;;3.28;;
73276;SDS011;61501;43.316;5.372;2023-06-14T03:03:21;3.80;;;3.33;;
73276;SDS011;61501;43.316;5.372;2023-06-14T03:05:49;6.85;;;3.53;;
73276;SDS011;61501;43.316;5.372;2023-06-14T03:08:16;3.83;;;3.53;;
73276;SDS011;61501;43.316;5.372;2023-06-14T03:10:46;4.80;;;3.30;;
73276;SDS011;61501;43.316;5.372;2023-06-14T03:13:13;3.55;;;3.25;;
73276;SDS011;61501;43.316;5.372;2023-06-14T03:15:39;3.80;;;3.50;;
73276;SDS011;61501;43.316;5.372;2023-06-14T03:18:06;3.70;;;3.40;;
73276;SDS011;61501;43.316;5.372;2023-06-14T03:20:33;3.60;;;3.30;;
73276;SDS011;61501;43.316;5.372;2023-06-14T03:23:00;4.15;;;3.00;;
73276;SDS011;61501;43.316;5.372;2023-06-14T03:25:27;4.57;;;3.35;;
73276;SDS011;61501;43.316;5.372;2023-06-14T03:27:54;3.30;;;3.00;;
73276;SDS011;61501;43.316;5.372;2023-06-14T03:30:20;3.88;;;3.30;;
73276;SDS011;61501;43.316;5.372;2023-06-14T03:32:46;4.97;;;3.17;;
73276;SDS011;61501;43.316;5.372;2023-06-14T03:35:12;4.25;;;3.28;;
73276;SDS011;61501;43.316;5.372;2023-06-14T03:37:43;3.25;;;2.97;;
73276;SDS011;61501;43.316;5.372;2023-06-14T03:40:09;3.63;;;3.33;;
73276;SDS011;61501;43.316;5.372;2023-06-14T03:42:36;6.00;;;3.05;;
73276;SDS011;61501;43.316;5.372;2023-06-14T03:45:02;3.95;;;3.55;;
73276;SDS011;61501;43.316;5.372;2023-06-14T03:47:28;4.03;;;3.63;;
73276;SDS011;61501;43.316;5.372;2023-06-14T03:49:54;3.72;;;3.42;;
73276;SDS011;61501;43.316;5.372;2023-06-14T03:52:20;4.93;;;3.55;;
73276;SDS011;61501;43.316;5.372;2023-06-14T03:54:48;5.43;;;4.00;;
73276;SDS011;61501;43.316;5.372;2023-06-14T03:57:14;5.50;;;3.45;;
73276;SDS011;61501;43.316;5.372;2023-06-14T03:59:40;4.80;;;3.60;;
73276;SDS011;61501;43.316;5.372;2023-06-14T04:02:06;3.97;;;3.65;;
73276;SDS011;61501;43.316;5.372;2023-06-14T04:04:34;4.07;;;3.67;;
73276;SDS011;61501;43.316;5.372;2023-06-14T04:07:00;3.70;;;3.38;;
73276;SDS011;61501;43.316;5.372;2023-06-14T04:09:28;4.97;;;4.22;;
73276;SDS011;61501;43.316;5.372;2023-06-14T04:11:54;4.18;;;3.67;;
73276;SDS011;61501;43.316;5.372;2023-06-14T04:14:21;4.45;;;4.05;;
73276;SDS011;61501;43.316;5.372;2023-06-14T04:16:47;4.50;;;4.00;;
73276;SDS011;61501;43.316;5.372;2023-06-14T04:19:13;3.97;;;3.65;;
73276;SDS011;61501;43.316;5.372;2023-06-14T04:21:40;4.25;;;3.85;;
73276;SDS011;61501;43.316;5.372;2023-06-14T04:24:06;4.72;;;4.00;;
73276;SDS011;61501;43.316;5.372;2023-06-14T04:26:32;4.40;;;3.88;;
73276;SDS011;61501;43.316;5.372;2023-06-14T04:28:58;5.40;;;3.78;;
73276;SDS011;61501;43.316;5.372;2023-06-14T04:31:30;4.65;;;4.25;;
73276;SDS011;61501;43.316;5.372;2023-06-14T04:34:02;3.80;;;3.50;;
73276;SDS011;61501;43.316;5.372;2023-06-14T04:36:31;5.22;;;3.80;;
73276;SDS011;61501;43.316;5.372;2023-06-14T04:38:59;4.10;;;3.63;;
73276;SDS011;61501;43.316;5.372;2023-06-14T04:41:25;3.85;;;3.42;;
73276;SDS011;61501;43.316;5.372;2023-06-14T04:43:55;4.00;;;3.65;;
73276;SDS011;61501;43.316;5.372;2023-06-14T04:46:23;6.50;;;3.47;;
73276;SDS011;61501;43.316;5.372;2023-06-14T04:48:49;4.38;;;3.70;;
73276;SDS011;61501;43.316;5.372;2023-06-14T04:51:15;4.32;;;3.70;;
73276;SDS011;61501;43.316;5.372;2023-06-14T04:53:41;4.32;;;3.70;;
73276;SDS011;61501;43.316;5.372;2023-06-14T04:56:09;4.18;;;3.72;;
73276;SDS011;61501;43.316;5.372;2023-06-14T04:58:35;4.97;;;4.40;;
73276;SDS011;61501;43.316;5.372;2023-06-14T05:01:01;5.93;;;4.30;;
73276;SDS011;61501;43.316;5.372;2023-06-14T05:03:28;4.35;;;3.95;;
73276;SDS011;61501;43.316;5.372;2023-06-14T05:05:55;4.30;;;3.88;;
73276;SDS011;61501;43.316;5.372;2023-06-14T05:08:21;4.50;;;3.95;;
73276;SDS011;61501;43.316;5.372;2023-06-14T05:10:48;6.13;;;4.28;;
73276;SDS011;61501;43.316;5.372;2023-06-14T05:13:14;4.97;;;4.38;;
73276;SDS011;61501;43.316;5.372;2023-06-14T05:15:41;7.25;;;4.60;;
73276;SDS011;61501;43.316;5.372;2023-06-14T05:18:07;4.82;;;3.85;;
73276;SDS011;61501;43.316;5.372;2023-06-14T05:20:33;5.38;;;4.20;;
73276;SDS011;61501;43.316;5.372;2023-06-14T05:22:59;4.38;;;3.90;;
73276;SDS011;61501;43.316;5.372;2023-06-14T05:25:26;4.20;;;3.80;;
73276;SDS011;61501;43.316;5.372;2023-06-14T05:27:53;4.65;;;3.90;;
73276;SDS011;61501;43.316;5.372;2023-06-14T05:30:19;4.78;;;4.25;;
73276;SDS011;61501;43.316;5.372;2023-06-14T05:32:45;4.43;;;4.00;;
73276;SDS011;61501;43.316;5.372;2023-06-14T05:35:11;5.93;;;3.97;;
73276;SDS011;61501;43.316;5.372;2023-06-14T05:37:37;5.97;;;4.30;;
73276;SDS011;61501;43.316;5.372;2023-06-14T05:40:04;5.43;;;3.92;;
73276;SDS011;61501;43.316;5.372;2023-06-14T05:42:34;5.78;;;4.72;;
73276;SDS011;61501;43.316;5.372;2023-06-14T05:45:00;5.43;;;4.30;;
73276;SDS011;61501;43.316;5.372;2023-06-14T05:47:26;4.90;;;4.35;;
73276;SDS011;61501;43.316;5.372;2023-06-14T05:49:52;4.88;;;3.83;;
73276;SDS011;61501;43.316;5.372;2023-06-14T05:52:20;6.82;;;3.80;;
73276;SDS011;61501;43.316;5.372;2023-06-14T05:54:46;4.50;;;3.75;;
73276;SDS011;61501;43.316;5.372;2023-06-14T05:57:12;5.03;;;3.88;;
73276;SDS011;61501;43.316;5.372;2023-06-14T05:59:38;8.77;;;4.30;;
73276;SDS011;61501;43.316;5.372;2023-06-14T06:02:04;4.95;;;4.35;;
73276;SDS011;61501;43.316;5.372;2023-06-14T06:04:30;5.90;;;4.63;;
73276;SDS011;61501;43.316;5.372;2023-06-14T06:06:56;5.90;;;4.00;;
73276;SDS011;61501;43.316;5.372;2023-06-14T06:09:22;6.80;;;4.05;;
73276;SDS011;61501;43.316;5.372;2023-06-14T06:11:48;5.05;;;4.30;;
73276;SDS011;61501;43.316;5.372;2023-06-14T06:14:14;7.13;;;4.80;;
73276;SDS011;61501;43.316;5.372;2023-06-14T06:16:40;5.38;;;4.05;;
73276;SDS011;61501;43.316;5.372;2023-06-14T06:19:06;8.63;;;4.13;;
73276;SDS011;61501;43.316;5.372;2023-06-14T06:21:32;8.48;;;4.35;;
73276;SDS011;61501;43.316;5.372;2023-06-14T06:23:58;8.70;;;3.75;;
73276;SDS011;61501;43.316;5.372;2023-06-14T06:26:28;7.93;;;4.25;;
73276;SDS011;61501;43.316;5.372;2023-06-14T06:28:54;5.45;;;3.70;;
73276;SDS011;61501;43.316;5.372;2023-06-14T06:31:22;6.38;;;4.25;;
73276;SDS011;61501;43.316;5.372;2023-06-14T06:33:48;5.65;;;3.80;;
73276;SDS011;61501;43.316;5.372;2023-06-14T06:36:14;5.22;;;3.67;;
73276;SDS011;61501;43.316;5.372;2023-06-14T06:38:40;4.72;;;3.78;;
73276;SDS011;61501;43.316;5.372;2023-06-14T06:41:06;8.95;;;3.60;;
73276;SDS011;61501;43.316;5.372;2023-06-14T06:43:32;7.30;;;3.90;;
73276;SDS011;61501;43.316;5.372;2023-06-14T06:45:58;13.30;;;6.00;;
73276;SDS011;61501;43.316;5.372;2023-06-14T06:48:24;9.88;;;5.75;;
73276;SDS011;61501;43.316;5.372;2023-06-14T06:50:50;9.27;;;5.97;;
73276;SDS011;61501;43.316;5.372;2023-06-14T06:53:17;7.88;;;5.95;;
73276;SDS011;61501;43.316;5.372;2023-06-14T06:55:43;8.55;;;4.75;;
73276;SDS011;61501;43.316;5.372;2023-06-14T06:58:09;4.55;;;3.03;;
73276;SDS011;61501;43.316;5.372;2023-06-14T07:00:35;13.00;;;4.00;;
73276;SDS011;61501;43.316;5.372;2023-06-14T07:03:01;8.98;;;3.92;;
73276;SDS011;61501;43.316;5.372;2023-06-14T07:05:29;6.93;;;4.65;;
73276;SDS011;61501;43.316;5.372;2023-06-14T07:07:55;12.90;;;4.30;;
73276;SDS011;61501;43.316;5.372;2023-06-14T07:10:21;9.52;;;3.30;;
73276;SDS011;61501;43.316;5.372;2023-06-14T07:12:47;5.40;;;2.88;;
73276;SDS011;61501;43.316;5.372;2023-06-14T07:15:13;4.70;;;2.85;;
73276;SDS011;61501;43.316;5.372;2023-06-14T07:17:39;8.00;;;2.45;;
73276;SDS011;61501;43.316;5.372;2023-06-14T07:20:06;9.18;;;3.10;;
73276;SDS011;61501;43.316;5.372;2023-06-14T07:22:33;8.32;;;2.63;;
73276;SDS011;61501;43.316;5.372;2023-06-14T07:24:59;4.93;;;2.58;;
73276;SDS011;61501;43.316;5.372;2023-06-14T07:27:25;7.07;;;2.80;;
73276;SDS011;61501;43.316;5.372;2023-06-14T07:29:51;8.93;;;2.63;;
73276;SDS011;61501;43.316;5.372;2023-06-14T07:32:17;3.40;;;2.42;;
73276;SDS011;61501;43.316;5.372;2023-06-14T07:34:43;4.38;;;2.20;;
73276;SDS011;61501;43.316;5.372;2023-06-14T07:37:09;6.75;;;2.47;;
73276;SDS011;61501;43.316;5.372;2023-06-14T07:39:35;6.78;;;2.80;;
73276;SDS011;61501;43.316;5.372;2023-06-14T07:42:01;8.65;;;2.90;;
73276;SDS011;61501;43.316;5.372;2023-06-14T07:44:29;8.82;;;3.10;;
73276;SDS011;61501;43.316;5.372;2023-06-14T07:46:58;5.43;;;2.60;;
73276;SDS011;61501;43.316;5.372;2023-06-14T07:49:25;5.68;;;2.63;;
73276;SDS011;61501;43.316;5.372;2023-06-14T07:51:51;8.55;;;2.70;;
73276;SDS011;61501;43.316;5.372;2023-06-14T07:54:18;5.47;;;2.83;;
73276;SDS011;61501;43.316;5.372;2023-06-14T07:56:45;4.63;;;2.60;;
73276;SDS011;61501;43.316;5.372;2023-06-14T07:59:11;6.45;;;2.40;;
73276;SDS011;61501;43.316;5.372;2023-06-14T08:01:37;4.93;;;2.58;;
73276;SDS011;61501;43.316;5.372;2023-06-14T08:04:04;5.15;;;2.67;;
73276;SDS011;61501;43.316;5.372;2023-06-14T08:06:30;5.55;;;2.60;;
73276;SDS011;61501;43.316;5.372;2023-06-14T08:08:56;5.03;;;3.05;;
73276;SDS011;61501;43.316;5.372;2023-06-14T08:11:22;4.75;;;2.70;;
73276;SDS011;61501;43.316;5.372;2023-06-14T08:13:49;5.88;;;2.40;;
73276;SDS011;61501;43.316;5.372;2023-06-14T08:16:15;5.35;;;2.22;;
73276;SDS011;61501;43.316;5.372;2023-06-14T08:18:41;6.05;;;2.22;;
73276;SDS011;61501;43.316;5.372;2023-06-14T08:21:07;7.20;;;2.60;;
73276;SDS011;61501;43.316;5.372;2023-06-14T08:23:33;3.45;;;2.05;;
73276;SDS011;61501;43.316;5.372;2023-06-14T08:25:59;4.90;;;2.53;;
73276;SDS011;61501;43.316;5.372;2023-06-14T08:28:26;7.50;;;2.50;;
73276;SDS011;61501;43.316;5.372;2023-06-14T08:30:52;4.47;;;2.20;;
73276;SDS011;61501;43.316;5.372;2023-06-14T08:33:18;3.53;;;2.10;;
73276;SDS011;61501;43.316;5.372;2023-06-14T08:35:44;5.45;;;2.38;;
73276;SDS011;61501;43.316;5.372;2023-06-14T08:38:10;4.63;;;2.70;;
73276;SDS011;61501;43.316;5.372;2023-06-14T08:40:37;4.28;;;2.50;;
73276;SDS011;61501;43.316;5.372;2023-06-14T08:43:03;4.85;;;2.78;;
73276;SDS011;61501;43.316;5.372;2023-06-14T08:45:29;3.88;;;2.67;;
73276;SDS011;61501;43.316;5.372;2023-06-14T08:47:55;3.05;;;2.63;;
73276;SDS011;61501;43.316;5.372;2023-06-14T08:50:25;4.25;;;2.20;;
73276;SDS011;61501;43.316;5.372;2023-06-14T08:53:01;3.15;;;2.13;;
73276;SDS011;61501;43.316;5.372;2023-06-14T08:55:28;2.72;;;2.20;;
73276;SDS011;61501;43.316;5.372;2023-06-14T08:57:55;3.95;;;1.67;;
73276;SDS011;61501;43.316;5.372;2023-06-14T09:00:25;2.28;;;1.75;;
73276;SDS011;61501;43.316;5.372;2023-06-14T09:02:52;5.10;;;2.25;;
73276;SDS011;61501;43.316;5.372;2023-06-14T09:05:26;5.63;;;2.40;;
73276;SDS011;61501;43.316;5.372;2023-06-14T09:07:52;6.20;;;2.85;;
73276;SDS011;61501;43.316;5.372;2023-06-14T09:10:21;2.83;;;2.38;;
73276;SDS011;61501;43.316;5.372;2023-06-14T09:12:48;4.03;;;2.42;;
73276;SDS011;61501;43.316;5.372;2023-06-14T09:15:14;4.60;;;2.42;;
73276;SDS011;61501;43.316;5.372;2023-06-14T09:17:40;5.60;;;2.42;;
73276;SDS011;61501;43.316;5.372;2023-06-14T09:20:07;4.60;;;2.40;;
73276;SDS011;61501;43.316;5.372;2023-06-14T09:22:43;4.65;;;2.70;;
73276;SDS011;61501;43.316;5.372;2023-06-14T09:25:09;3.50;;;2.53;;
73276;SDS011;61501;43.316;5.372;2023-06-14T09:27:35;2.78;;;2.30;;
73276;SDS011;61501;43.316;5.372;2023-06-14T09:30:04;3.08;;;2.47;;
73276;SDS011;61501;43.316;5.372;2023-06-14T09:32:35;4.22;;;2.47;;
73276;SDS011;61501;43.316;5.372;2023-06-14T09:35:02;3.70;;;2.00;;
73276;SDS011;61501;43.316;5.372;2023-06-14T09:37:31;4.50;;;2.47;;
73276;SDS011;61501;43.316;5.372;2023-06-14T09:39:58;4.65;;;2.60;;
73276;SDS011;61501;43.316;5.372;2023-06-14T09:42:24;4.80;;;2.40;;
73276;SDS011;61501;43.316;5.372;2023-06-14T09:44:51;3.10;;;2.33;;
73276;SDS011;61501;43.316;5.372;2023-06-14T09:47:18;5.38;;;2.15;;
73276;SDS011;61501;43.316;5.372;2023-06-14T09:49:44;4.30;;;2.40;;
73276;SDS011;61501;43.316;5.372;2023-06-14T09:52:10;3.45;;;2.25;;
73276;SDS011;61501;43.316;5.372;2023-06-14T09:54:40;3.15;;;1.98;;
73276;SDS011;61501;43.316;5.372;2023-06-14T09:57:14;2.08;;;1.88;;
73276;SDS011;61501;43.316;5.372;2023-06-14T09:59:41;3.88;;;2.05;;
73276;SDS011;61501;43.316;5.372;2023-06-14T10:02:13;6.28;;;2.20;;
73276;SDS011;61501;43.316;5.372;2023-06-14T10:04:41;5.20;;;1.83;;
73276;SDS011;61501;43.316;5.372;2023-06-14T10:07:11;2.67;;;2.03;;
73276;SDS011;61501;43.316;5.372;2023-06-14T10:09:37;4.43;;;2.33;;
73276;SDS011;61501;43.316;5.372;2023-06-14T10:12:04;4.72;;;2.55;;
73276;SDS011;61501;43.316;5.372;2023-06-14T10:14:30;3.65;;;2.33;;
73276;SDS011;61501;43.316;5.372;2023-06-14T10:17:04;3.72;;;2.50;;
73276;SDS011;61501;43.316;5.372;2023-06-14T10:19:34;4.80;;;2.38;;
73276;SDS011;61501;43.316;5.372;2023-06-14T10:22:13;5.43;;;2.50;;
73276;SDS011;61501;43.316;5.372;2023-06-14T10:24:43;6.88;;;2.80;;
73276;SDS011;61501;43.316;5.372;2023-06-14T10:27:09;3.40;;;2.65;;
73276;SDS011;61501;43.316;5.372;2023-06-14T10:32:23;4.25;;;2.72;;
73276;SDS011;61501;43.316;5.372;2023-06-14T10:34:56;3.45;;;2.67;;
73276;SDS011;61501;43.316;5.372;2023-06-14T10:39:49;4.75;;;2.85;;
73276;SDS011;61501;43.316;5.372;2023-06-14T10:42:16;6.53;;;2.90;;
73276;SDS011;61501;43.316;5.372;2023-06-14T10:44:57;4.50;;;2.83;;
73276;SDS011;61501;43.316;5.372;2023-06-14T10:49:53;3.50;;;3.17;;
73276;SDS011;61501;43.316;5.372;2023-06-14T10:52:26;5.85;;;2.83;;
73276;SDS011;61501;43.316;5.372;2023-06-14T10:55:12;4.45;;;3.10;;
73276;SDS011;61501;43.316;5.372;2023-06-14T10:57:52;3.75;;;3.40;;
73276;SDS011;61501;43.316;5.372;2023-06-14T11:00:30;4.85;;;2.90;;
73276;SDS011;61501;43.316;5.372;2023-06-14T11:10:41;3.63;;;2.70;;
73276;SDS011;61501;43.316;5.372;2023-06-14T11:13:10;3.50;;;2.65;;
73276;SDS011;61501;43.316;5.372;2023-06-14T11:15:36;3.58;;;3.22;;
73276;SDS011;61501;43.316;5.372;2023-06-14T11:18:03;4.20;;;3.80;;
73276;SDS011;61501;43.316;5.372;2023-06-14T11:20:30;4.32;;;3.45;;
73276;SDS011;61501;43.316;5.372;2023-06-14T11:22:56;5.03;;;3.78;;
73276;SDS011;61501;43.316;5.372;2023-06-14T11:25:22;4.05;;;3.47;;
73276;SDS011;61501;43.316;5.372;2023-06-14T11:27:49;5.50;;;3.42;;
73276;SDS011;61501;43.316;5.372;2023-06-14T11:30:15;4.22;;;3.42;;
73276;SDS011;61501;43.316;5.372;2023-06-14T11:32:41;4.40;;;3.20;;
73276;SDS011;61501;43.316;5.372;2023-06-14T11:35:08;3.78;;;3.38;;
73276;SDS011;61501;43.316;5.372;2023-06-14T11:37:34;3.90;;;3.08;;
73276;SDS011;61501;43.316;5.372;2023-06-14T11:40:02;6.45;;;3.17;;
73276;SDS011;61501;43.316;5.372;2023-06-14T11:42:33;3.50;;;3.00;;
73276;SDS011;61501;43.316;5.372;2023-06-14T11:44:59;6.28;;;3.10;;
73276;SDS011;61501;43.316;5.372;2023-06-14T11:47:32;7.00;;;3.65;;
73276;SDS011;61501;43.316;5.372;2023-06-14T11:49:59;6.13;;;2.95;;
73276;SDS011;61501;43.316;5.372;2023-06-14T11:52:25;3.88;;;2.80;;
73276;SDS011;61501;43.316;5.372;2023-06-14T11:54:51;3.33;;;2.75;;
73276;SDS011;61501;43.316;5.372;2023-06-14T11:57:17;6.18;;;3.65;;
73276;SDS011;61501;43.316;5.372;2023-06-14T11:59:44;8.95;;;4.15;;
73276;SDS011;61501;43.316;5.372;2023-06-14T12:02:14;6.38;;;3.38;;
73276;SDS011;61501;43.316;5.372;2023-06-14T12:04:43;7.72;;;3.50;;
73276;SDS011;61501;43.316;5.372;2023-06-14T12:07:13;7.60;;;3.85;;
73276;SDS011;61501;43.316;5.372;2023-06-14T12:12:21;5.43;;;3.80;;
73276;SDS011;61501;43.316;5.372;2023-06-14T12:14:47;4.85;;;3.20;;
73276;SDS011;61501;43.316;5.372;2023-06-14T12:17:16;5.75;;;3.72;;
73276;SDS011;61501;43.316;5.372;2023-06-14T12:19:42;10.38;;;3.85;;
73276;SDS011;61501;43.316;5.372;2023-06-14T12:22:09;4.32;;;3.58;;
73276;SDS011;61501;43.316;5.372;2023-06-14T12:24:35;6.30;;;3.92;;
73276;SDS011;61501;43.316;5.372;2023-06-14T12:27:01;5.40;;;3.75;;
73276;SDS011;61501;43.316;5.372;2023-06-14T12:29:29;4.00;;;3.60;;
73276;SDS011;61501;43.316;5.372;2023-06-14T12:31:55;5.00;;;3.42;;
73276;SDS011;61501;43.316;5.372;2023-06-14T12:34:24;5.03;;;4.00;;
73276;SDS011;61501;43.316;5.372;2023-06-14T12:36:52;6.38;;;3.85;;
73276;SDS011;61501;43.316;5.372;2023-06-14T12:39:18;6.85;;;3.72;;
73276;SDS011;61501;43.316;5.372;2023-06-14T12:41:45;5.53;;;4.38;;
73276;SDS011;61501;43.316;5.372;2023-06-14T12:44:11;8.50;;;5.35;;
73276;SDS011;61501;43.316;5.372;2023-06-14T12:46:37;6.18;;;5.57;;
73276;SDS011;61501;43.316;5.372;2023-06-14T12:49:10;6.15;;;4.72;;
73276;SDS011;61501;43.316;5.372;2023-06-14T12:51:40;5.88;;;4.60;;
73276;SDS011;61501;43.316;5.372;2023-06-14T12:54:06;5.13;;;4.15;;
73276;SDS011;61501;43.316;5.372;2023-06-14T12:56:32;10.35;;;4.05;;
73276;SDS011;61501;43.316;5.372;2023-06-14T12:58:58;5.28;;;4.03;;
73276;SDS011;61501;43.316;5.372;2023-06-14T13:01:24;4.32;;;3.17;;
73276;SDS011;61501;43.316;5.372;2023-06-14T13:03:50;4.50;;;3.75;;
73276;SDS011;61501;43.316;5.372;2023-06-14T13:06:20;4.72;;;3.83;;
73276;SDS011;61501;43.316;5.372;2023-06-14T13:08:47;6.30;;;3.65;;
73276;SDS011;61501;43.316;5.372;2023-06-14T13:11:14;5.28;;;3.90;;
73276;SDS011;61501;43.316;5.372;2023-06-14T13:13:40;5.60;;;3.97;;
73276;SDS011;61501;43.316;5.372;2023-06-14T13:16:06;5.50;;;3.80;;
73276;SDS011;61501;43.316;5.372;2023-06-14T13:18:32;4.97;;;3.90;;
73276;SDS011;61501;43.316;5.372;2023-06-14T13:20:58;5.00;;;3.33;;
73276;SDS011;61501;43.316;5.372;2023-06-14T13:23:24;6.65;;;3.58;;
73276;SDS011;61501;43.316;5.372;2023-06-14T13:25:50;6.13;;;4.10;;
73276;SDS011;61501;43.316;5.372;2023-06-14T13:28:16;9.02;;;3.67;;
73276;SDS011;61501;43.316;5.372;2023-06-14T13:30:42;4.65;;;3.90;;
73276;SDS011;61501;43.316;5.372;2023-06-14T13:33:08;4.10;;;3.42;;
73276;SDS011;61501;43.316;5.372;2023-06-14T13:35:34;7.15;;;3.47;;
73276;SDS011;61501;43.316;5.372;2023-06-14T13:38:01;4.20;;;3.80;;
73276;SDS011;61501;43.316;5.372;2023-06-14T13:40:27;5.38;;;3.53;;
73276;SDS011;61501;43.316;5.372;2023-06-14T13:42:53;4.20;;;3.78;;
73276;SDS011;61501;43.316;5.372;2023-06-14T13:45:19;7.35;;;4.22;;
73276;SDS011;61501;43.316;5.372;2023-06-14T13:47:45;7.55;;;4.93;;
73276;SDS011;61501;43.316;5.372;2023-06-14T13:50:13;6.32;;;4.00;;
73276;SDS011;61501;43.316;5.372;2023-06-14T13:52:40;5.07;;;3.97;;
73276;SDS011;61501;43.316;5.372;2023-06-14T13:55:06;4.53;;;3.80;;
73276;SDS011;61501;43.316;5.372;2023-06-14T13:57:32;3.85;;;3.40;;
73276;SDS011;61501;43.316;5.372;2023-06-14T13:59:58;5.97;;;3.53;;
73276;SDS011;61501;43.316;5.372;2023-06-14T14:02:29;4.53;;;4.13;;
73276;SDS011;61501;43.316;5.372;2023-06-14T14:04:55;5.38;;;3.70;;
73276;SDS011;61501;43.316;5.372;2023-06-14T14:07:22;4.57;;;3.55;;
73276;SDS011;61501;43.316;5.372;2023-06-14T14:09:48;7.97;;;4.70;;
73276;SDS011;61501;43.316;5.372;2023-06-14T14:12:14;7.70;;;4.38;;
73276;SDS011;61501;43.316;5.372;2023-06-14T14:14:40;5.35;;;4.65;;
73276;SDS011;61501;43.316;5.372;2023-06-14T14:17:06;5.18;;;4.22;;
73276;SDS011;61501;43.316;5.372;2023-06-14T14:19:32;5.95;;;4.38;;
73276;SDS011;61501;43.316;5.372;2023-06-14T14:21:58;4.82;;;4.32;;
73276;SDS011;61501;43.316;5.372;2023-06-14T14:24:26;6.60;;;3.70;;
73276;SDS011;61501;43.316;5.372;2023-06-14T14:26:52;5.25;;;4.47;;
73276;SDS011;61501;43.316;5.372;2023-06-14T14:29:19;7.60;;;4.57;;
73276;SDS011;61501;43.316;5.372;2023-06-14T14:31:45;6.70;;;4.47;;
73276;SDS011;61501;43.316;5.372;2023-06-14T14:34:12;5.68;;;4.85;;
73276;SDS011;61501;43.316;5.372;2023-06-14T14:36:38;5.72;;;4.30;;
73276;SDS011;61501;43.316;5.372;2023-06-14T14:39:07;4.75;;;4.15;;
73276;SDS011;61501;43.316;5.372;2023-06-14T14:41:33;6.57;;;4.45;;
73276;SDS011;61501;43.316;5.372;2023-06-14T14:43:59;5.70;;;4.13;;
73276;SDS011;61501;43.316;5.372;2023-06-14T14:46:26;5.32;;;4.78;;
73276;SDS011;61501;43.316;5.372;2023-06-14T14:48:53;5.88;;;3.70;;
73276;SDS011;61501;43.316;5.372;2023-06-14T14:51:19;4.45;;;3.53;;
73276;SDS011;61501;43.316;5.372;2023-06-14T14:53:45;7.32;;;4.30;;
73276;SDS011;61501;43.316;5.372;2023-06-14T14:56:11;4.97;;;3.95;;
73276;SDS011;61501;43.316;5.372;2023-06-14T14:58:37;8.38;;;5.10;;
73276;SDS011;61501;43.316;5.372;2023-06-14T15:01:03;8.27;;;4.82;;
73276;SDS011;61501;43.316;5.372;2023-06-14T15:03:30;7.00;;;4.88;;
73276;SDS011;61501;43.316;5.372;2023-06-14T15:05:56;4.90;;;4.30;;
73276;SDS011;61501;43.316;5.372;2023-06-14T15:08:22;5.95;;;4.10;;
73276;SDS011;61501;43.316;5.372;2023-06-14T15:10:48;7.90;;;5.38;;
73276;SDS011;61501;43.316;5.372;2023-06-14T15:13:15;6.78;;;4.28;;